sensor_id;sensor_type;location;lat;lon;timestamp;temperature;humidity
19214;DHT22;9741;51.020;5.304;2023-07-28T00:02:11;19.60;75.00
19214;DHT22;9741;51.020;5.304;2023-07-28T00:04:38;19.60;75.00
19214;DHT22;9741;51.020;5.304;2023-07-28T00:07:06;19.70;75.10
19214;DHT22;9741;51.020;5.304;2023-07-28T00:09:33;19.60;75.00
19214;DHT22;9741;51.020;5.304;2023-07-28T00:12:00;19.60;75.00
19214;DHT22;9741;51.020;5.304;2023-07-28T00:14:28;19.70;75.10
19214;DHT22;9741;51.020;5.304;2023-07-28T00:16:56;19.60;75.00
19214;DHT22;9741;51.020;5.304;2023-07-28T00:19:25;19.60;74.90
19214;DHT22;9741;51.020;5.304;2023-07-28T00:21:52;19.70;75.00
19214;DHT22;9741;51.020;5.304;2023-07-28T00:24:21;19.60;74.90
19214;DHT22;9741;51.020;5.304;2023-07-28T00:26:48;19.60;74.90
19214;DHT22;9741;51.020;5.304;2023-07-28T00:29:15;19.60;75.00
19214;DHT22;9741;51.020;5.304;2023-07-28T00:31:42;19.60;75.00
19214;DHT22;9741;51.020;5.304;2023-07-28T00:34:09;19.70;75.10
19214;DHT22;9741;51.020;5.304;2023-07-28T00:36:38;19.70;75.10
19214;DHT22;9741;51.020;5.304;2023-07-28T00:39:07;19.70;75.20
19214;DHT22;9741;51.020;5.304;2023-07-28T00:41:34;19.60;75.00
19214;DHT22;9741;51.020;5.304;2023-07-28T00:44:01;19.70;75.10
19214;DHT22;9741;51.020;5.304;2023-07-28T00:46:28;19.70;75.20
19214;DHT22;9741;51.020;5.304;2023-07-28T00:48:55;19.60;75.10
19214;DHT22;9741;51.020;5.304;2023-07-28T00:51:23;19.70;75.10
19214;DHT22;9741;51.020;5.304;2023-07-28T00:53:52;19.70;75.10
19214;DHT22;9741;51.020;5.304;2023-07-28T00:56:20;19.70;75.20
19214;DHT22;9741;51.020;5.304;2023-07-28T00:58:48;19.70;75.10
19214;DHT22;9741;51.020;5.304;2023-07-28T01:01:15;19.70;75.10
19214;DHT22;9741;51.020;5.304;2023-07-28T01:03:43;19.60;75.00
19214;DHT22;9741;51.020;5.304;2023-07-28T01:06:14;19.70;75.20
19214;DHT22;9741;51.020;5.304;2023-07-28T01:08:49;19.60;75.10
19214;DHT22;9741;51.020;5.304;2023-07-28T01:11:18;19.60;75.20
19214;DHT22;9741;51.020;5.304;2023-07-28T01:13:46;19.60;75.20
19214;DHT22;9741;51.020;5.304;2023-07-28T01:16:13;19.60;75.20
19214;DHT22;9741;51.020;5.304;2023-07-28T01:18:40;19.60;75.20
19214;DHT22;9741;51.020;5.304;2023-07-28T01:21:13;19.60;75.30
19214;DHT22;9741;51.020;5.304;2023-07-28T01:23:47;19.60;75.30
19214;DHT22;9741;51.020;5.304;2023-07-28T01:26:28;19.60;75.30
19214;DHT22;9741;51.020;5.304;2023-07-28T01:28:55;19.60;75.30
19214;DHT22;9741;51.020;5.304;2023-07-28T01:31:22;19.60;75.40
19214;DHT22;9741;51.020;5.304;2023-07-28T01:33:49;19.50;75.40
19214;DHT22;9741;51.020;5.304;2023-07-28T01:36:16;19.50;75.40
19214;DHT22;9741;51.020;5.304;2023-07-28T01:38:43;19.50;75.50
19214;DHT22;9741;51.020;5.304;2023-07-28T01:41:10;19.50;75.60
19214;DHT22;9741;51.020;5.304;2023-07-28T01:43:39;19.50;75.60
19214;DHT22;9741;51.020;5.304;2023-07-28T01:46:07;19.50;75.70
19214;DHT22;9741;51.020;5.304;2023-07-28T01:48:34;19.50;75.70
19214;DHT22;9741;51.020;5.304;2023-07-28T01:51:01;19.50;75.70
19214;DHT22;9741;51.020;5.304;2023-07-28T01:53:28;19.50;75.70
19214;DHT22;9741;51.020;5.304;2023-07-28T01:55:55;19.50;75.70
19214;DHT22;9741;51.020;5.304;2023-07-28T01:58:22;19.50;75.70
19214;DHT22;9741;51.020;5.304;2023-07-28T02:00:51;19.50;75.70
19214;DHT22;9741;51.020;5.304;2023-07-28T02:03:18;19.50;75.80
19214;DHT22;9741;51.020;5.304;2023-07-28T02:05:45;19.50;75.80
19214;DHT22;9741;51.020;5.304;2023-07-28T02:08:12;19.50;75.90
19214;DHT22;9741;51.020;5.304;2023-07-28T02:10:39;19.50;75.90
19214;DHT22;9741;51.020;5.304;2023-07-28T02:13:06;19.50;75.90
19214;DHT22;9741;51.020;5.304;2023-07-28T02:15:33;19.50;76.00
19214;DHT22;9741;51.020;5.304;2023-07-28T02:18:01;19.50;76.00
19214;DHT22;9741;51.020;5.304;2023-07-28T02:20:28;19.50;76.10
19214;DHT22;9741;51.020;5.304;2023-07-28T02:22:55;19.50;76.00
19214;DHT22;9741;51.020;5.304;2023-07-28T02:25:23;19.50;76.10
19214;DHT22;9741;51.020;5.304;2023-07-28T02:27:50;19.50;76.10
19214;DHT22;9741;51.020;5.304;2023-07-28T02:30:17;19.50;76.10
19214;DHT22;9741;51.020;5.304;2023-07-28T02:32:44;19.50;76.20
19214;DHT22;9741;51.020;5.304;2023-07-28T02:35:12;19.50;76.20
19214;DHT22;9741;51.020;5.304;2023-07-28T02:37:39;19.50;76.30
19214;DHT22;9741;51.020;5.304;2023-07-28T02:40:08;19.50;76.20
19214;DHT22;9741;51.020;5.304;2023-07-28T02:42:35;19.60;76.40
19214;DHT22;9741;51.020;5.304;2023-07-28T02:45:02;19.60;76.40
19214;DHT22;9741;51.020;5.304;2023-07-28T02:47:29;19.60;76.40
19214;DHT22;9741;51.020;5.304;2023-07-28T02:49:56;19.60;76.40
19214;DHT22;9741;51.020;5.304;2023-07-28T02:52:25;19.60;76.40
19214;DHT22;9741;51.020;5.304;2023-07-28T02:54:52;19.60;76.40
19214;DHT22;9741;51.020;5.304;2023-07-28T02:57:19;19.60;76.40
19214;DHT22;9741;51.020;5.304;2023-07-28T02:59:46;19.60;76.40
19214;DHT22;9741;51.020;5.304;2023-07-28T03:02:13;19.60;76.50
19214;DHT22;9741;51.020;5.304;2023-07-28T03:04:40;19.60;76.50
19214;DHT22;9741;51.020;5.304;2023-07-28T03:07:07;19.60;76.50
19214;DHT22;9741;51.020;5.304;2023-07-28T03:09:35;19.60;76.60
19214;DHT22;9741;51.020;5.304;2023-07-28T03:12:03;19.60;76.60
19214;DHT22;9741;51.020;5.304;2023-07-28T03:14:31;19.60;76.70
19214;DHT22;9741;51.020;5.304;2023-07-28T03:16:58;19.60;76.80
19214;DHT22;9741;51.020;5.304;2023-07-28T03:19:25;19.60;76.80
19214;DHT22;9741;51.020;5.304;2023-07-28T03:21:52;19.60;76.80
19214;DHT22;9741;51.020;5.304;2023-07-28T03:24:19;19.60;76.80
19214;DHT22;9741;51.020;5.304;2023-07-28T03:26:48;19.60;76.80
19214;DHT22;9741;51.020;5.304;2023-07-28T03:29:15;19.60;76.80
19214;DHT22;9741;51.020;5.304;2023-07-28T03:31:42;19.60;77.40
19214;DHT22;9741;51.020;5.304;2023-07-28T03:34:09;19.60;76.80
19214;DHT22;9741;51.020;5.304;2023-07-28T03:36:36;19.60;76.80
19214;DHT22;9741;51.020;5.304;2023-07-28T03:39:03;19.70;77.00
19214;DHT22;9741;51.020;5.304;2023-07-28T03:41:30;19.60;76.90
19214;DHT22;9741;51.020;5.304;2023-07-28T03:43:58;19.60;77.00
19214;DHT22;9741;51.020;5.304;2023-07-28T03:46:25;19.60;77.00
19214;DHT22;9741;51.020;5.304;2023-07-28T03:48:52;19.60;77.00
19214;DHT22;9741;51.020;5.304;2023-07-28T03:51:19;19.60;77.00
19214;DHT22;9741;51.020;5.304;2023-07-28T03:53:46;19.60;77.00
19214;DHT22;9741;51.020;5.304;2023-07-28T03:56:13;19.60;77.00
19214;DHT22;9741;51.020;5.304;2023-07-28T03:58:40;19.60;77.10
19214;DHT22;9741;51.020;5.304;2023-07-28T04:01:09;19.70;77.20
19214;DHT22;9741;51.020;5.304;2023-07-28T04:03:36;19.70;77.20
19214;DHT22;9741;51.020;5.304;2023-07-28T04:06:09;19.70;77.20
19214;DHT22;9741;51.020;5.304;2023-07-28T04:08:36;19.80;77.30
19214;DHT22;9741;51.020;5.304;2023-07-28T04:11:03;19.70;77.10
19214;DHT22;9741;51.020;5.304;2023-07-28T04:13:30;19.70;77.20
19214;DHT22;9741;51.020;5.304;2023-07-28T04:15:57;19.70;77.20
19214;DHT22;9741;51.020;5.304;2023-07-28T04:18:26;19.80;77.30
19214;DHT22;9741;51.020;5.304;2023-07-28T04:20:53;19.80;77.30
19214;DHT22;9741;51.020;5.304;2023-07-28T04:23:20;19.80;77.30
19214;DHT22;9741;51.020;5.304;2023-07-28T04:25:47;19.80;77.20
19214;DHT22;9741;51.020;5.304;2023-07-28T04:28:14;19.80;77.20
19214;DHT22;9741;51.020;5.304;2023-07-28T04:30:41;19.90;77.30
19214;DHT22;9741;51.020;5.304;2023-07-28T04:33:08;19.90;77.40
19214;DHT22;9741;51.020;5.304;2023-07-28T04:35:36;19.90;77.30
19214;DHT22;9741;51.020;5.304;2023-07-28T04:38:03;19.90;77.30
19214;DHT22;9741;51.020;5.304;2023-07-28T04:40:30;19.90;77.20
19214;DHT22;9741;51.020;5.304;2023-07-28T04:42:57;19.90;77.20
19214;DHT22;9741;51.020;5.304;2023-07-28T04:45:24;19.90;77.20
19214;DHT22;9741;51.020;5.304;2023-07-28T04:47:51;19.90;77.80
19214;DHT22;9741;51.020;5.304;2023-07-28T04:50:18;20.00;77.30
19214;DHT22;9741;51.020;5.304;2023-07-28T04:52:47;20.00;77.20
19214;DHT22;9741;51.020;5.304;2023-07-28T04:55:14;20.00;77.20
19214;DHT22;9741;51.020;5.304;2023-07-28T04:57:41;20.00;77.20
19214;DHT22;9741;51.020;5.304;2023-07-28T05:00:09;20.00;77.20
19214;DHT22;9741;51.020;5.304;2023-07-28T05:02:36;20.00;77.20
19214;DHT22;9741;51.020;5.304;2023-07-28T05:05:03;20.00;77.20
19214;DHT22;9741;51.020;5.304;2023-07-28T05:07:30;20.00;77.20
19214;DHT22;9741;51.020;5.304;2023-07-28T05:09:59;20.10;77.20
19214;DHT22;9741;51.020;5.304;2023-07-28T05:12:26;20.10;77.20
19214;DHT22;9741;51.020;5.304;2023-07-28T05:14:53;20.10;77.10
19214;DHT22;9741;51.020;5.304;2023-07-28T05:17:20;20.10;77.10
19214;DHT22;9741;51.020;5.304;2023-07-28T05:19:49;20.10;77.10
19214;DHT22;9741;51.020;5.304;2023-07-28T05:22:16;20.10;77.10
19214;DHT22;9741;51.020;5.304;2023-07-28T05:24:44;20.10;77.00
19214;DHT22;9741;51.020;5.304;2023-07-28T05:27:12;20.20;77.20
19214;DHT22;9741;51.020;5.304;2023-07-28T05:29:39;20.20;77.20
19214;DHT22;9741;51.020;5.304;2023-07-28T05:32:07;20.20;77.10
19214;DHT22;9741;51.020;5.304;2023-07-28T05:34:34;20.20;77.10
19214;DHT22;9741;51.020;5.304;2023-07-28T05:37:01;20.20;77.10
19214;DHT22;9741;51.020;5.304;2023-07-28T05:39:28;20.30;77.20
19214;DHT22;9741;51.020;5.304;2023-07-28T05:41:55;20.30;77.10
19214;DHT22;9741;51.020;5.304;2023-07-28T05:44:24;20.30;77.10
19214;DHT22;9741;51.020;5.304;2023-07-28T05:46:51;20.30;77.10
19214;DHT22;9741;51.020;5.304;2023-07-28T05:49:18;20.30;77.00
19214;DHT22;9741;51.020;5.304;2023-07-28T05:51:45;20.40;77.10
19214;DHT22;9741;51.020;5.304;2023-07-28T05:54:12;20.40;77.10
19214;DHT22;9741;51.020;5.304;2023-07-28T05:56:40;20.40;77.00
19214;DHT22;9741;51.020;5.304;2023-07-28T05:59:07;20.40;77.00
19214;DHT22;9741;51.020;5.304;2023-07-28T06:01:35;20.50;77.00
19214;DHT22;9741;51.020;5.304;2023-07-28T06:04:03;20.50;76.90
19214;DHT22;9741;51.020;5.304;2023-07-28T06:06:30;20.60;76.90
19214;DHT22;9741;51.020;5.304;2023-07-28T06:08:57;20.60;76.90
19214;DHT22;9741;51.020;5.304;2023-07-28T06:11:24;20.60;76.80
19214;DHT22;9741;51.020;5.304;2023-07-28T06:13:52;20.60;76.70
19214;DHT22;9741;51.020;5.304;2023-07-28T06:16:19;20.70;76.80
19214;DHT22;9741;51.020;5.304;2023-07-28T06:18:47;20.70;76.80
19214;DHT22;9741;51.020;5.304;2023-07-28T06:21:14;20.70;76.80
19214;DHT22;9741;51.020;5.304;2023-07-28T06:23:41;20.80;76.90
19214;DHT22;9741;51.020;5.304;2023-07-28T06:26:08;20.80;76.80
19214;DHT22;9741;51.020;5.304;2023-07-28T06:28:35;20.90;76.80
19214;DHT22;9741;51.020;5.304;2023-07-28T06:31:03;20.90;76.60
19214;DHT22;9741;51.020;5.304;2023-07-28T06:33:30;20.90;76.50
19214;DHT22;9741;51.020;5.304;2023-07-28T06:35:59;20.90;76.50
19214;DHT22;9741;51.020;5.304;2023-07-28T06:38:26;21.00;76.50
19214;DHT22;9741;51.020;5.304;2023-07-28T06:40:53;21.00;76.50
19214;DHT22;9741;51.020;5.304;2023-07-28T06:43:21;21.10;76.40
19214;DHT22;9741;51.020;5.304;2023-07-28T06:45:50;21.10;76.30
19214;DHT22;9741;51.020;5.304;2023-07-28T06:48:18;21.20;76.30
19214;DHT22;9741;51.020;5.304;2023-07-28T06:50:45;21.30;76.20
19214;DHT22;9741;51.020;5.304;2023-07-28T06:53:13;21.30;76.10
19214;DHT22;9741;51.020;5.304;2023-07-28T06:55:42;21.40;76.00
19214;DHT22;9741;51.020;5.304;2023-07-28T06:58:09;21.40;75.90
19214;DHT22;9741;51.020;5.304;2023-07-28T07:00:36;21.50;75.90
19214;DHT22;9741;51.020;5.304;2023-07-28T07:03:03;21.60;75.90
19214;DHT22;9741;51.020;5.304;2023-07-28T07:05:30;21.70;75.80
19214;DHT22;9741;51.020;5.304;2023-07-28T07:07:57;21.80;75.70
19214;DHT22;9741;51.020;5.304;2023-07-28T07:10:27;21.80;75.50
19214;DHT22;9741;51.020;5.304;2023-07-28T07:12:56;21.90;75.30
19214;DHT22;9741;51.020;5.304;2023-07-28T07:15:23;22.00;75.20
19214;DHT22;9741;51.020;5.304;2023-07-28T07:17:50;22.10;75.70
19214;DHT22;9741;51.020;5.304;2023-07-28T07:20:17;22.20;75.10
19214;DHT22;9741;51.020;5.304;2023-07-28T07:22:45;22.40;75.10
19214;DHT22;9741;51.020;5.304;2023-07-28T07:25:13;22.50;74.80
19214;DHT22;9741;51.020;5.304;2023-07-28T07:27:41;22.70;74.80
19214;DHT22;9741;51.020;5.304;2023-07-28T07:30:09;22.90;74.50
19214;DHT22;9741;51.020;5.304;2023-07-28T07:32:36;23.10;74.40
19214;DHT22;9741;51.020;5.304;2023-07-28T07:35:04;23.40;74.40
19214;DHT22;9741;51.020;5.304;2023-07-28T07:37:32;23.70;73.80
19214;DHT22;9741;51.020;5.304;2023-07-28T07:39:59;23.80;73.10
19214;DHT22;9741;51.020;5.304;2023-07-28T07:42:27;23.90;72.80
19214;DHT22;9741;51.020;5.304;2023-07-28T07:44:56;24.20;72.80
19214;DHT22;9741;51.020;5.304;2023-07-28T07:47:23;24.30;72.20
19214;DHT22;9741;51.020;5.304;2023-07-28T07:49:50;24.40;71.70
19214;DHT22;9741;51.020;5.304;2023-07-28T07:52:17;24.40;71.00
19214;DHT22;9741;51.020;5.304;2023-07-28T07:54:44;24.40;70.90
19214;DHT22;9741;51.020;5.304;2023-07-28T07:57:11;24.40;70.70
19214;DHT22;9741;51.020;5.304;2023-07-28T07:59:38;24.50;70.70
19214;DHT22;9741;51.020;5.304;2023-07-28T08:02:07;24.60;70.60
19214;DHT22;9741;51.020;5.304;2023-07-28T08:04:34;24.80;70.50
19214;DHT22;9741;51.020;5.304;2023-07-28T08:07:02;25.20;70.40
19214;DHT22;9741;51.020;5.304;2023-07-28T08:09:30;25.50;69.90
19214;DHT22;9741;51.020;5.304;2023-07-28T08:11:57;25.90;69.10
19214;DHT22;9741;51.020;5.304;2023-07-28T08:14:24;26.10;68.50
19214;DHT22;9741;51.020;5.304;2023-07-28T08:16:51;26.40;67.90
19214;DHT22;9741;51.020;5.304;2023-07-28T08:19:19;26.60;67.20
19214;DHT22;9741;51.020;5.304;2023-07-28T08:21:46;26.60;66.40
19214;DHT22;9741;51.020;5.304;2023-07-28T08:24:13;26.50;66.00
19214;DHT22;9741;51.020;5.304;2023-07-28T08:26:41;26.40;65.80
19214;DHT22;9741;51.020;5.304;2023-07-28T08:29:08;26.50;65.80
19214;DHT22;9741;51.020;5.304;2023-07-28T08:31:35;26.40;65.60
19214;DHT22;9741;51.020;5.304;2023-07-28T08:34:02;26.40;65.30
19214;DHT22;9741;51.020;5.304;2023-07-28T08:36:31;26.40;65.30
19214;DHT22;9741;51.020;5.304;2023-07-28T08:38:58;26.40;65.10
19214;DHT22;9741;51.020;5.304;2023-07-28T08:41:25;26.30;64.80
19214;DHT22;9741;51.020;5.304;2023-07-28T08:43:54;26.10;64.60
19214;DHT22;9741;51.020;5.304;2023-07-28T08:46:21;25.80;64.50
19214;DHT22;9741;51.020;5.304;2023-07-28T08:48:48;25.50;64.70
19214;DHT22;9741;51.020;5.304;2023-07-28T08:51:15;25.30;65.10
19214;DHT22;9741;51.020;5.304;2023-07-28T08:53:44;25.10;65.60
19214;DHT22;9741;51.020;5.304;2023-07-28T08:56:11;25.10;66.10
19214;DHT22;9741;51.020;5.304;2023-07-28T08:58:38;25.30;66.40
19214;DHT22;9741;51.020;5.304;2023-07-28T09:01:05;25.50;67.00
19214;DHT22;9741;51.020;5.304;2023-07-28T09:03:32;25.90;66.30
19214;DHT22;9741;51.020;5.304;2023-07-28T09:06:03;26.20;65.70
19214;DHT22;9741;51.020;5.304;2023-07-28T09:08:31;26.30;64.90
19214;DHT22;9741;51.020;5.304;2023-07-28T09:11:02;26.40;64.40
19214;DHT22;9741;51.020;5.304;2023-07-28T09:13:36;26.50;64.20
19214;DHT22;9741;51.020;5.304;2023-07-28T09:16:04;26.60;64.00
19214;DHT22;9741;51.020;5.304;2023-07-28T09:18:31;26.70;63.70
19214;DHT22;9741;51.020;5.304;2023-07-28T09:20:58;26.90;63.50
19214;DHT22;9741;51.020;5.304;2023-07-28T09:23:28;27.10;63.30
19214;DHT22;9741;51.020;5.304;2023-07-28T09:26:00;27.20;63.00
19214;DHT22;9741;51.020;5.304;2023-07-28T09:28:37;27.30;62.80
19214;DHT22;9741;51.020;5.304;2023-07-28T09:31:05;27.40;62.70
19214;DHT22;9741;51.020;5.304;2023-07-28T09:33:33;27.50;62.70
19214;DHT22;9741;51.020;5.304;2023-07-28T09:36:07;27.60;62.80
19214;DHT22;9741;51.020;5.304;2023-07-28T09:38:36;27.60;62.60
19214;DHT22;9741;51.020;5.304;2023-07-28T09:41:05;27.80;62.50
19214;DHT22;9741;51.020;5.304;2023-07-28T09:43:34;27.90;62.00
19214;DHT22;9741;51.020;5.304;2023-07-28T09:46:03;27.90;61.50
19214;DHT22;9741;51.020;5.304;2023-07-28T09:48:32;27.90;61.20
19214;DHT22;9741;51.020;5.304;2023-07-28T09:51:05;27.80;61.00
19214;DHT22;9741;51.020;5.304;2023-07-28T09:53:40;27.90;61.10
19214;DHT22;9741;51.020;5.304;2023-07-28T09:56:10;28.10;61.00
19214;DHT22;9741;51.020;5.304;2023-07-28T09:58:41;28.40;60.80
19214;DHT22;9741;51.020;5.304;2023-07-28T10:01:11;28.50;60.30
19214;DHT22;9741;51.020;5.304;2023-07-28T10:03:39;28.70;60.10
19214;DHT22;9741;51.020;5.304;2023-07-28T10:06:06;29.00;60.00
19214;DHT22;9741;51.020;5.304;2023-07-28T10:08:33;29.20;59.40
19214;DHT22;9741;51.020;5.304;2023-07-28T10:11:02;29.30;58.90
19214;DHT22;9741;51.020;5.304;2023-07-28T10:13:39;29.40;58.50
19214;DHT22;9741;51.020;5.304;2023-07-28T10:16:07;29.30;58.00
19214;DHT22;9741;51.020;5.304;2023-07-28T10:18:35;29.10;57.90
19214;DHT22;9741;51.020;5.304;2023-07-28T10:21:05;28.90;58.00
19214;DHT22;9741;51.020;5.304;2023-07-28T10:23:34;28.50;57.80
19214;DHT22;9741;51.020;5.304;2023-07-28T10:26:02;28.10;58.00
19214;DHT22;9741;51.020;5.304;2023-07-28T10:28:35;27.70;58.20
19214;DHT22;9741;51.020;5.304;2023-07-28T10:31:04;27.30;58.20
19214;DHT22;9741;51.020;5.304;2023-07-28T10:33:33;27.00;58.40
19214;DHT22;9741;51.020;5.304;2023-07-28T10:36:13;26.70;58.60
19214;DHT22;9741;51.020;5.304;2023-07-28T10:38:40;26.50;59.00
19214;DHT22;9741;51.020;5.304;2023-07-28T10:41:14;26.30;59.20
19214;DHT22;9741;51.020;5.304;2023-07-28T10:43:44;26.20;59.50
19214;DHT22;9741;51.020;5.304;2023-07-28T10:46:15;26.20;59.60
19214;DHT22;9741;51.020;5.304;2023-07-28T10:48:43;26.20;59.70
19214;DHT22;9741;51.020;5.304;2023-07-28T10:51:10;26.30;59.90
19214;DHT22;9741;51.020;5.304;2023-07-28T10:53:38;26.20;60.00
19214;DHT22;9741;51.020;5.304;2023-07-28T10:56:05;26.20;60.20
19214;DHT22;9741;51.020;5.304;2023-07-28T10:58:35;26.10;60.20
19214;DHT22;9741;51.020;5.304;2023-07-28T11:01:04;26.20;60.40
19214;DHT22;9741;51.020;5.304;2023-07-28T11:03:31;26.10;60.60
19214;DHT22;9741;51.020;5.304;2023-07-28T11:05:59;26.20;60.80
19214;DHT22;9741;51.020;5.304;2023-07-28T11:08:26;26.10;60.80
19214;DHT22;9741;51.020;5.304;2023-07-28T11:10:53;26.10;60.90
19214;DHT22;9741;51.020;5.304;2023-07-28T11:13:22;26.10;61.20
19214;DHT22;9741;51.020;5.304;2023-07-28T11:15:51;26.20;61.50
19214;DHT22;9741;51.020;5.304;2023-07-28T11:18:19;26.20;61.40
19214;DHT22;9741;51.020;5.304;2023-07-28T11:20:47;26.30;61.50
19214;DHT22;9741;51.020;5.304;2023-07-28T11:23:14;26.20;61.50
19214;DHT22;9741;51.020;5.304;2023-07-28T11:25:43;26.20;61.70
19214;DHT22;9741;51.020;5.304;2023-07-28T11:28:15;26.10;61.80
19214;DHT22;9741;51.020;5.304;2023-07-28T11:30:43;25.90;61.90
19214;DHT22;9741;51.020;5.304;2023-07-28T11:33:10;25.70;62.10
19214;DHT22;9741;51.020;5.304;2023-07-28T11:35:40;25.50;62.40
19214;DHT22;9741;51.020;5.304;2023-07-28T11:38:11;25.40;62.80
19214;DHT22;9741;51.020;5.304;2023-07-28T11:40:38;25.40;63.10
19214;DHT22;9741;51.020;5.304;2023-07-28T11:43:05;25.40;63.30
19214;DHT22;9741;51.020;5.304;2023-07-28T11:45:33;25.40;63.40
19214;DHT22;9741;51.020;5.304;2023-07-28T11:48:02;25.40;63.80
19214;DHT22;9741;51.020;5.304;2023-07-28T11:50:34;25.40;64.30
19214;DHT22;9741;51.020;5.304;2023-07-28T11:53:04;25.60;64.50
19214;DHT22;9741;51.020;5.304;2023-07-28T11:55:31;25.90;64.50
19214;DHT22;9741;51.020;5.304;2023-07-28T11:58:00;26.10;64.40
19214;DHT22;9741;51.020;5.304;2023-07-28T12:00:30;26.40;64.30
19214;DHT22;9741;51.020;5.304;2023-07-28T12:03:07;26.50;64.10
19214;DHT22;9741;51.020;5.304;2023-07-28T12:05:35;26.60;63.90
19214;DHT22;9741;51.020;5.304;2023-07-28T12:08:04;26.70;63.80
19214;DHT22;9741;51.020;5.304;2023-07-28T12:10:33;26.80;63.80
19214;DHT22;9741;51.020;5.304;2023-07-28T12:13:04;26.80;63.60
19214;DHT22;9741;51.020;5.304;2023-07-28T12:15:32;26.90;63.40
19214;DHT22;9741;51.020;5.304;2023-07-28T12:18:07;26.80;63.30
19214;DHT22;9741;51.020;5.304;2023-07-28T12:20:36;26.70;63.50
19214;DHT22;9741;51.020;5.304;2023-07-28T12:23:05;26.60;63.60
19214;DHT22;9741;51.020;5.304;2023-07-28T12:25:34;26.60;63.80
19214;DHT22;9741;51.020;5.304;2023-07-28T12:28:02;26.60;63.80
19214;DHT22;9741;51.020;5.304;2023-07-28T12:30:29;26.70;64.00
19214;DHT22;9741;51.020;5.304;2023-07-28T12:32:56;26.90;64.10
19214;DHT22;9741;51.020;5.304;2023-07-28T12:35:24;27.20;63.80
19214;DHT22;9741;51.020;5.304;2023-07-28T12:37:53;27.50;63.60
19214;DHT22;9741;51.020;5.304;2023-07-28T12:40:22;27.60;63.20
19214;DHT22;9741;51.020;5.304;2023-07-28T12:42:49;27.70;63.00
19214;DHT22;9741;51.020;5.304;2023-07-28T12:45:16;27.90;62.70
19214;DHT22;9741;51.020;5.304;2023-07-28T12:47:43;28.00;62.50
19214;DHT22;9741;51.020;5.304;2023-07-28T12:50:10;28.10;62.30
19214;DHT22;9741;51.020;5.304;2023-07-28T12:52:37;28.20;62.00
19214;DHT22;9741;51.020;5.304;2023-07-28T12:55:05;28.10;61.80
19214;DHT22;9741;51.020;5.304;2023-07-28T12:57:33;27.90;61.80
19214;DHT22;9741;51.020;5.304;2023-07-28T13:00:00;27.70;61.70
19214;DHT22;9741;51.020;5.304;2023-07-28T13:02:32;27.40;61.80
19214;DHT22;9741;51.020;5.304;2023-07-28T13:04:59;27.20;62.30
19214;DHT22;9741;51.020;5.304;2023-07-28T13:07:26;27.00;62.50
19214;DHT22;9741;51.020;5.304;2023-07-28T13:09:53;26.80;62.60
19214;DHT22;9741;51.020;5.304;2023-07-28T13:12:20;26.70;63.40
19214;DHT22;9741;51.020;5.304;2023-07-28T13:14:48;26.60;63.00
19214;DHT22;9741;51.020;5.304;2023-07-28T13:17:15;26.60;63.10
19214;DHT22;9741;51.020;5.304;2023-07-28T13:19:42;26.70;63.20
19214;DHT22;9741;51.020;5.304;2023-07-28T13:22:10;26.80;63.30
19214;DHT22;9741;51.020;5.304;2023-07-28T13:24:37;26.90;63.10
19214;DHT22;9741;51.020;5.304;2023-07-28T13:27:04;27.00;62.80
19214;DHT22;9741;51.020;5.304;2023-07-28T13:29:31;26.90;62.50
19214;DHT22;9741;51.020;5.304;2023-07-28T13:32:00;26.90;62.30
19214;DHT22;9741;51.020;5.304;2023-07-28T13:34:27;26.90;62.20
19214;DHT22;9741;51.020;5.304;2023-07-28T13:36:54;26.90;62.20
19214;DHT22;9741;51.020;5.304;2023-07-28T13:39:22;27.00;62.10
19214;DHT22;9741;51.020;5.304;2023-07-28T13:41:50;27.10;61.80
19214;DHT22;9741;51.020;5.304;2023-07-28T13:44:17;27.20;61.60
19214;DHT22;9741;51.020;5.304;2023-07-28T13:46:44;27.30;61.50
19214;DHT22;9741;51.020;5.304;2023-07-28T13:49:12;27.30;61.00
19214;DHT22;9741;51.020;5.304;2023-07-28T13:51:39;27.40;60.60
19214;DHT22;9741;51.020;5.304;2023-07-28T13:54:06;27.30;60.20
19214;DHT22;9741;51.020;5.304;2023-07-28T13:56:33;27.30;60.10
19214;DHT22;9741;51.020;5.304;2023-07-28T13:59:00;27.30;60.20
19214;DHT22;9741;51.020;5.304;2023-07-28T14:01:27;27.40;60.10
19214;DHT22;9741;51.020;5.304;2023-07-28T14:03:54;27.70;59.90
19214;DHT22;9741;51.020;5.304;2023-07-28T14:06:23;27.90;59.50
19214;DHT22;9741;51.020;5.304;2023-07-28T14:08:50;28.10;59.20
19214;DHT22;9741;51.020;5.304;2023-07-28T14:11:17;28.10;59.10
19214;DHT22;9741;51.020;5.304;2023-07-28T14:13:44;28.10;58.70
19214;DHT22;9741;51.020;5.304;2023-07-28T14:16:11;28.00;58.50
19214;DHT22;9741;51.020;5.304;2023-07-28T14:18:38;27.90;58.40
19214;DHT22;9741;51.020;5.304;2023-07-28T14:21:06;27.80;58.50
19214;DHT22;9741;51.020;5.304;2023-07-28T14:23:35;27.90;58.60
19214;DHT22;9741;51.020;5.304;2023-07-28T14:26:02;27.90;58.40
19214;DHT22;9741;51.020;5.304;2023-07-28T14:28:29;27.90;58.90
19214;DHT22;9741;51.020;5.304;2023-07-28T14:30:56;27.90;57.90
19214;DHT22;9741;51.020;5.304;2023-07-28T14:33:23;28.00;57.80
19214;DHT22;9741;51.020;5.304;2023-07-28T14:35:50;28.00;57.60
19214;DHT22;9741;51.020;5.304;2023-07-28T14:38:18;28.00;57.30
19214;DHT22;9741;51.020;5.304;2023-07-28T14:40:46;28.20;57.20
19214;DHT22;9741;51.020;5.304;2023-07-28T14:43:14;28.30;56.50
19214;DHT22;9741;51.020;5.304;2023-07-28T14:45:42;28.40;55.90
19214;DHT22;9741;51.020;5.304;2023-07-28T14:48:09;28.30;55.50
19214;DHT22;9741;51.020;5.304;2023-07-28T14:50:36;28.20;55.30
19214;DHT22;9741;51.020;5.304;2023-07-28T14:53:26;28.10;55.30
19214;DHT22;9741;51.020;5.304;2023-07-28T14:55:51;28.00;55.40
19214;DHT22;9741;51.020;5.304;2023-07-28T14:58:18;28.00;55.20
19214;DHT22;9741;51.020;5.304;2023-07-28T15:00:46;28.00;55.20
19214;DHT22;9741;51.020;5.304;2023-07-28T15:03:13;28.10;54.90
19214;DHT22;9741;51.020;5.304;2023-07-28T15:05:40;28.20;55.00
19214;DHT22;9741;51.020;5.304;2023-07-28T15:08:07;28.40;55.00
19214;DHT22;9741;51.020;5.304;2023-07-28T15:10:34;28.50;54.70
19214;DHT22;9741;51.020;5.304;2023-07-28T15:13:03;28.70;54.20
19214;DHT22;9741;51.020;5.304;2023-07-28T15:15:30;28.80;53.90
19214;DHT22;9741;51.020;5.304;2023-07-28T15:17:57;28.80;53.70
19214;DHT22;9741;51.020;5.304;2023-07-28T15:20:24;28.70;53.50
19214;DHT22;9741;51.020;5.304;2023-07-28T15:22:51;28.70;53.20
19214;DHT22;9741;51.020;5.304;2023-07-28T15:25:18;28.50;52.80
19214;DHT22;9741;51.020;5.304;2023-07-28T15:27:45;28.40;52.70
19214;DHT22;9741;51.020;5.304;2023-07-28T15:30:13;28.30;52.80
19214;DHT22;9741;51.020;5.304;2023-07-28T15:32:40;28.30;53.00
19214;DHT22;9741;51.020;5.304;2023-07-28T15:35:08;28.30;53.10
19214;DHT22;9741;51.020;5.304;2023-07-28T15:37:36;28.40;53.00
19214;DHT22;9741;51.020;5.304;2023-07-28T15:40:04;28.40;52.70
19214;DHT22;9741;51.020;5.304;2023-07-28T15:42:31;28.40;52.30
19214;DHT22;9741;51.020;5.304;2023-07-28T15:44:58;28.30;52.00
19214;DHT22;9741;51.020;5.304;2023-07-28T15:47:27;28.30;52.20
19214;DHT22;9741;51.020;5.304;2023-07-28T15:49:58;28.30;52.10